Shtandart — UAEM — position and weather

sailwx.info

Track history (hours):
 
Tides and Currents Weather Stations Pressure Air Temp Water Temp Dewpoint Dewpoint Depression Visibility Wind Speed Wind Dir Waves Ship Positions

Shtandart

Re-creation of early 1700's Russian naval frigate.

Last reported at 2018-Jun-21 03:44 UTC. Time now 2018-Jun-22 01:39 UTC.
Position N 54°07' E 008°02'.

Length 34 m; draft 3 m.

Type: Sailing vessel. MMSI: 273452840.

Date/timePositionNaut miles runAvg speedWind from/ knotsBaromVisibWave heightAir tempDewpointWater temp
2018-Jun-21 03:44N 54°07' E 008°02'1 5.4
2018-Jun-21 03:30N 54°06' E 008°04'3 5.5
2018-Jun-21 03:00N 54°05' E 008°08'3 5.6
2018-Jun-21 02:30N 54°03' E 008°12'3 5.1
2018-Jun-21 02:00N 54°02' E 008°16'3 5.2
2018-Jun-21 01:28N 54°01' E 008°20'11 7.1
2018-Jun-20 23:57N 53°57' E 008°37'5 9.7
2018-Jun-20 23:29N 53°54' E 008°42'510.5
2018-Jun-20 23:00N 53°50' E 008°49'611.0
2018-Jun-20 22:30N 53°51' E 008°58'510.6
2018-Jun-20 22:00N 53°53' E 009°06'2 4.9
2018-Jun-20 21:30N 53°54' E 009°10'4 8.3
2018-Jun-20 21:00N 53°57' E 009°15'4 8.2
2018-Jun-20 20:31N 54°01' E 009°18'45 5.8
2018-Jun-20 12:42N 54°30' E 010°17'1 6.2
2018-Jun-20 12:30N 54°30' E 010°19'3 6.4
2018-Jun-20 12:00N 54°32' E 010°24'3 6.7
2018-Jun-20 11:30N 54°33' E 010°29'3 6.4
2018-Jun-20 11:00N 54°33' E 010°35'3 6.6
2018-Jun-20 10:30N 54°33' E 010°41'3 6.3
2018-Jun-20 10:00N 54°33' E 010°46'3 6.0
2018-Jun-20 09:30N 54°34' E 010°51'3 5.5
2018-Jun-20 09:00N 54°34' E 010°56'3 5.3
2018-Jun-20 08:30N 54°34' E 011°00'3 5.8
2018-Jun-20 08:00N 54°35' E 011°05'3 6.5
2018-Jun-20 07:31N 54°35' E 011°11'3 6.4
2018-Jun-20 07:00N 54°34' E 011°16'3 6.4
2018-Jun-20 06:30N 54°33' E 011°22'3 6.7
2018-Jun-20 06:00N 54°33' E 011°27'3 6.7
2018-Jun-20 05:30N 54°32' E 011°33'3 6.1
2018-Jun-20 05:00N 54°31' E 011°38'3 6.4
2018-Jun-20 04:30N 54°30' E 011°43'3 6.3
2018-Jun-20 04:00N 54°30' E 011°49'3 6.8
2018-Jun-20 03:30N 54°30' E 011°54'4 7.3
2018-Jun-20 02:59N 54°32' E 012°01'5 7.4
2018-Jun-20 02:16N 54°35' E 012°08'2 7.5
2018-Jun-20 02:00N 54°36' E 012°10'4 7.1
2018-Jun-20 01:27N 54°39' E 012°15'3 7.1
2018-Jun-20 01:00N 54°42' E 012°18'3 6.8
2018-Jun-20 00:30N 54°44' E 012°22'3 6.4
2018-Jun-19 23:59N 54°47' E 012°26'6 6.1
2018-Jun-19 22:57N 54°52' E 012°32'10 7.0
2018-Jun-19 21:33N 55°01' E 012°36'1 8.3
2018-Jun-19 21:27N 55°02' E 012°36'4 8.2
2018-Jun-19 20:59N 55°06' E 012°36'4 7.9
2018-Jun-19 20:30N 55°10' E 012°36'4 8.0
2018-Jun-19 20:00N 55°14' E 012°36'4 7.3
2018-Jun-19 19:30N 55°17' E 012°36'4 7.7
2018-Jun-19 18:59N 55°21' E 012°37'4 7.9
2018-Jun-19 18:30N 55°25' E 012°39'4 7.8
2018-Jun-19 18:00N 55°29' E 012°40'4 8.4
2018-Jun-19 17:30N 55°33' E 012°42'4 9.0
2018-Jun-19 17:01N 55°38' E 012°42'4 8.5
2018-Jun-19 16:29N 55°42' E 012°38'2 3.2
2018-Jun-19 16:00N 55°41' E 012°36'0 0.0
2018-Jun-19 15:28N 55°41' E 012°36'0 0.0
2018-Jun-19 14:58N 55°41' E 012°36'0 0.0
2018-Jun-19 14:28N 55°41' E 012°36'0 0.0
2018-Jun-19 13:58N 55°41' E 012°36'0 0.0
2018-Jun-19 13:28N 55°41' E 012°36'0 0.0
2018-Jun-19 12:58N 55°41' E 012°36'0 0.0
2018-Jun-19 12:28N 55°41' E 012°36'0 0.0
2018-Jun-19 11:58N 55°41' E 012°36'0 0.0
2018-Jun-19 11:28N 55°41' E 012°36'0 0.0
2018-Jun-19 10:58N 55°41' E 012°36'0 0.0
2018-Jun-19 10:28N 55°41' E 012°36'0 0.0
2018-Jun-19 09:58N 55°41' E 012°36'0 0.0
2018-Jun-19 09:28N 55°41' E 012°36'0 0.0
2018-Jun-19 08:58N 55°41' E 012°36'0 0.0
2018-Jun-19 08:28N 55°41' E 012°36'0 0.0
2018-Jun-19 07:58N 55°41' E 012°36'0 0.0
2018-Jun-19 07:28N 55°41' E 012°36'0 0.0
2018-Jun-19 06:58N 55°41' E 012°36'0 0.0
2018-Jun-19 06:28N 55°41' E 012°36'0 0.0
2018-Jun-19 05:58N 55°41' E 012°36'0 0.0
2018-Jun-19 05:28N 55°41' E 012°36'0 0.0
2018-Jun-19 04:58N 55°41' E 012°36'0 0.0
2018-Jun-19 04:28N 55°41' E 012°36'0 0.0
2018-Jun-19 03:58N 55°41' E 012°36'0 0.0
2018-Jun-19 03:28N 55°41' E 012°36'0 0.0
2018-Jun-19 02:58N 55°41' E 012°36'0 0.0
2018-Jun-19 02:28N 55°41' E 012°36'0 0.0
2018-Jun-19 01:58N 55°41' E 012°36'0 0.0
2018-Jun-19 01:28N 55°41' E 012°36'0 0.0
2018-Jun-19 00:58N 55°41' E 012°36'0 0.0
2018-Jun-19 00:28N 55°41' E 012°36'0 0.0
2018-Jun-18 23:58N 55°41' E 012°36'0 0.0
2018-Jun-18 23:28N 55°41' E 012°36'0 0.0
2018-Jun-18 22:58N 55°41' E 012°36'0 0.0
2018-Jun-18 22:28N 55°41' E 012°36'0 0.0
2018-Jun-18 21:58N 55°41' E 012°36'0 0.0
2018-Jun-18 21:28N 55°41' E 012°36'0 0.0
2018-Jun-18 20:58N 55°41' E 012°36'0 0.0
2018-Jun-18 20:28N 55°41' E 012°36'0 0.0
2018-Jun-18 19:58N 55°41' E 012°36'0 0.0
2018-Jun-18 19:28N 55°41' E 012°36'0 0.0
2018-Jun-18 18:58N 55°41' E 012°36'0 0.0
2018-Jun-18 18:28N 55°41' E 012°36'0 0.0
2018-Jun-18 17:58N 55°41' E 012°36'0 0.0
2018-Jun-18 17:28N 55°41' E 012°36'0 0.0
2018-Jun-18 16:58N 55°41' E 012°36'0 0.0
2018-Jun-18 16:28N 55°41' E 012°36'0 0.0
2018-Jun-18 15:58N 55°41' E 012°36'0 0.0
2018-Jun-18 15:28N 55°41' E 012°36'0 0.9
2018-Jun-18 15:00N 55°41' E 012°36'2 4.5
2018-Jun-18 14:31N 55°43' E 012°38'2 4.1
2018-Jun-18 14:00N 55°45' E 012°39'2 4.7
2018-Jun-18 13:30N 55°48' E 012°38'2 4.9
2018-Jun-18 13:01N 55°50' E 012°38'2 4.5
2018-Jun-18 12:31N 55°52' E 012°39'2 4.7
2018-Jun-18 12:00N 55°55' E 012°39'3 5.3
2018-Jun-18 11:31N 55°57' E 012°39'3 5.4
2018-Jun-18 11:01N 56°00' E 012°39'2 4.8
2018-Jun-18 10:30N 56°02' E 012°38'2 3.5
2018-Jun-18 09:59N 56°04' E 012°36'91 5.4
2018-Jun-17 17:05N 56°57' E 010°23'1 7.6
2018-Jun-17 16:58N 56°58' E 010°22'4 7.3
2018-Jun-17 16:26N 56°59' E 010°15'3 7.2
2018-Jun-17 16:00N 57°00' E 010°10'4 7.4
2018-Jun-17 15:31N 57°03' E 010°05'3 6.5
2018-Jun-17 15:01N 57°05' E 010°01'3 6.4
2018-Jun-17 14:30N 57°03' E 009°56'1 1.1
2018-Jun-17 13:59N 57°03' E 009°55'0 0.0
2018-Jun-17 13:26N 57°03' E 009°55'0 0.0
2018-Jun-17 12:59N 57°03' E 009°55'0 0.0
2018-Jun-17 12:29N 57°03' E 009°55'0 0.0
2018-Jun-17 11:56N 57°03' E 009°55'0 0.0
2018-Jun-17 11:29N 57°03' E 009°55'0 0.0
2018-Jun-17 10:59N 57°03' E 009°55'0 0.0
2018-Jun-17 10:29N 57°03' E 009°55'0 0.0
2018-Jun-17 09:59N 57°03' E 009°55'0 0.0
2018-Jun-17 09:29N 57°03' E 009°55'0 0.0
2018-Jun-17 08:59N 57°03' E 009°55'0 0.0
2018-Jun-17 08:29N 57°03' E 009°55'0 0.0
2018-Jun-17 07:59N 57°03' E 009°55'0 0.0
2018-Jun-17 07:29N 57°03' E 009°55'0 0.0
2018-Jun-17 06:53N 57°03' E 009°55'0 0.0
2018-Jun-17 06:29N 57°03' E 009°55'0 0.0
2018-Jun-17 05:59N 57°03' E 009°55'0 0.0
2018-Jun-17 05:26N 57°03' E 009°55'0 0.0
2018-Jun-17 04:59N 57°03' E 009°55'0 0.0
2018-Jun-17 04:29N 57°03' E 009°55'0 0.0
2018-Jun-17 03:59N 57°03' E 009°55'0 0.0
2018-Jun-17 03:29N 57°03' E 009°55'0 0.0
2018-Jun-17 02:59N 57°03' E 009°55'0 0.0
2018-Jun-17 02:29N 57°03' E 009°55'0 0.0
2018-Jun-17 01:53N 57°03' E 009°55'0 0.0
2018-Jun-17 01:23N 57°03' E 009°55'0 0.0
2018-Jun-17 00:53N 57°03' E 009°55'0 0.0
2018-Jun-17 00:29N 57°03' E 009°55'0 0.0
2018-Jun-16 23:59N 57°03' E 009°55'0 0.0
2018-Jun-16 23:20N 57°03' E 009°55'0 0.0
2018-Jun-16 22:53N 57°03' E 009°55'0 0.0
2018-Jun-16 22:29N 57°03' E 009°55'0 0.0
2018-Jun-16 21:59N 57°03' E 009°55'0 0.0
2018-Jun-16 21:29N 57°03' E 009°55'0 0.0
2018-Jun-16 20:59N 57°03' E 009°55'0 0.0
2018-Jun-16 20:29N 57°03' E 009°55'0 0.0
2018-Jun-16 19:59N 57°03' E 009°55'0 0.0
2018-Jun-16 19:29N 57°03' E 009°55'0 0.0
2018-Jun-16 18:59N 57°03' E 009°55'0 0.0
2018-Jun-16 18:29N 57°03' E 009°55'0 0.0
2018-Jun-16 17:56N 57°03' E 009°55'0 0.0
2018-Jun-16 17:26N 57°03' E 009°55'0 0.0
2018-Jun-16 16:56N 57°03' E 009°55'0 0.0
2018-Jun-16 16:23N 57°03' E 009°55'0 0.0
2018-Jun-16 15:56N 57°03' E 009°55'0 0.0
2018-Jun-16 15:29N 57°03' E 009°55'0 0.0
2018-Jun-16 14:59N 57°03' E 009°55'0 0.0
2018-Jun-16 14:26N 57°03' E 009°55'0 0.0
2018-Jun-16 13:59N 57°03' E 009°55'0 0.0
2018-Jun-16 13:26N 57°03' E 009°55'0 0.0
2018-Jun-16 12:59N 57°03' E 009°55'0 0.0
2018-Jun-16 12:29N 57°03' E 009°55'0 0.0
2018-Jun-16 11:59N 57°03' E 009°55'0 0.0
2018-Jun-16 11:29N 57°03' E 009°55'0 0.0
2018-Jun-16 10:59N 57°03' E 009°55'0 0.0
2018-Jun-16 10:29N 57°03' E 009°55'0 0.0
2018-Jun-16 09:59N 57°03' E 009°55'0 0.0
2018-Jun-16 09:26N 57°03' E 009°55'0 0.0
2018-Jun-16 08:59N 57°03' E 009°55'0 0.0
2018-Jun-16 08:29N 57°03' E 009°55'0 0.0
2018-Jun-16 07:59N 57°03' E 009°55'0 0.0
2018-Jun-16 07:23N 57°03' E 009°55'0 0.0
2018-Jun-16 06:59N 57°03' E 009°55'0 0.0
2018-Jun-16 06:26N 57°03' E 009°55'0 0.0
2018-Jun-16 05:59N 57°03' E 009°55'0 0.0
2018-Jun-16 05:29N 57°03' E 009°55'0 0.0
2018-Jun-16 04:59N 57°03' E 009°55'0 0.0
2018-Jun-16 04:29N 57°03' E 009°55'0 0.0
2018-Jun-16 03:53N 57°03' E 009°55'0 0.0
2018-Jun-16 03:29N 57°03' E 009°55'0 0.0
2018-Jun-16 02:59N 57°03' E 009°55'0 0.0
2018-Jun-16 02:29N 57°03' E 009°55'0 0.0
2018-Jun-16 01:56N 57°03' E 009°55'0 0.0
2018-Jun-16 01:29N 57°03' E 009°55'0 0.0
2018-Jun-16 00:59N 57°03' E 009°55'0 0.0
2018-Jun-16 00:29N 57°03' E 009°55'0 0.0
2018-Jun-15 23:59N 57°03' E 009°55'0 0.0
2018-Jun-15 23:23N 57°03' E 009°55'0 0.0
2018-Jun-15 22:59N 57°03' E 009°55'0 0.0
2018-Jun-15 22:29N 57°03' E 009°55'0 0.0
2018-Jun-15 21:59N 57°03' E 009°55'0 0.0
2018-Jun-15 21:29N 57°03' E 009°55'0 0.0
2018-Jun-15 20:59N 57°03' E 009°55'0 0.0
2018-Jun-15 20:29N 57°03' E 009°55'0 0.0
2018-Jun-15 19:59N 57°03' E 009°55'0 0.0
2018-Jun-15 19:29N 57°03' E 009°55'0 0.0
2018-Jun-15 18:59N 57°03' E 009°55'0 0.0
2018-Jun-15 18:29N 57°03' E 009°55'0 0.0
2018-Jun-15 17:59N 57°03' E 009°55'0 0.0
2018-Jun-15 17:29N 57°03' E 009°55'0 0.0
2018-Jun-15 16:59N 57°03' E 009°55'0 0.0
2018-Jun-15 16:29N 57°03' E 009°55'0 0.0
2018-Jun-15 15:59N 57°03' E 009°55'0 0.0
2018-Jun-15 15:29N 57°03' E 009°55'0 0.0
2018-Jun-15 14:59N 57°03' E 009°55'0 0.0
2018-Jun-15 14:29N 57°03' E 009°55'0 0.0
2018-Jun-15 13:44N 57°03' E 009°55'0 0.0
2018-Jun-15 13:29N 57°03' E 009°55'0 0.0
2018-Jun-15 12:59N 57°03' E 009°55'0 0.0
2018-Jun-15 12:29N 57°03' E 009°55'0 0.0
2018-Jun-15 11:59N 57°03' E 009°55'0 0.0
2018-Jun-15 11:29N 57°03' E 009°55'0 0.0
2018-Jun-15 11:00N 57°03' E 009°55'0 0.4
2018-Jun-15 10:28N 57°03' E 009°56'0 0.0
2018-Jun-15 09:58N 57°03' E 009°56'0 0.0
2018-Jun-15 09:28N 57°03' E 009°56'0 0.0
2018-Jun-15 08:58N 57°03' E 009°56'0 0.0
2018-Jun-15 08:28N 57°03' E 009°56'0 0.0
2018-Jun-15 07:49N 57°03' E 009°56'0 0.0
2018-Jun-15 07:28N 57°03' E 009°56'0 0.0
2018-Jun-15 06:58N 57°03' E 009°56'0 0.0
2018-Jun-15 06:25N 57°03' E 009°56'0 0.0
2018-Jun-15 05:58N 57°03' E 009°56'0 0.0
2018-Jun-15 05:25N 57°03' E 009°56'0 0.0
2018-Jun-15 04:58N 57°03' E 009°56'0 0.0
2018-Jun-15 04:28N 57°03' E 009°56'0 0.0
2018-Jun-15 03:58N 57°03' E 009°56'0 0.0
2018-Jun-15 03:28N 57°03' E 009°56'0 0.0
2018-Jun-15 02:58N 57°03' E 009°56'0 0.0
2018-Jun-15 02:19N 57°03' E 009°56'0 0.0
2018-Jun-15 01:55N 57°03' E 009°56'0 0.0
2018-Jun-15 01:28N 57°03' E 009°56'0 0.0
2018-Jun-15 00:58N 57°03' E 009°56'0 0.0
2018-Jun-15 00:22N 57°03' E 009°56'0 0.0
2018-Jun-14 23:58N 57°03' E 009°56'0 0.0
2018-Jun-14 23:22N 57°03' E 009°56'0 0.0
2018-Jun-14 22:58N 57°03' E 009°56'0 0.0
2018-Jun-14 22:25N 57°03' E 009°56'0 0.0
2018-Jun-14 21:58N 57°03' E 009°56'0 0.0
2018-Jun-14 21:28N 57°03' E 009°56'0 0.0
2018-Jun-14 20:58N 57°03' E 009°56'0 0.0
2018-Jun-14 20:28N 57°03' E 009°56'1 1.4
2018-Jun-14 20:00N 57°03' E 009°57'3 5.5
2018-Jun-14 19:30N 57°05' E 010°00'3 5.7
2018-Jun-14 19:00N 57°03' E 010°04'3 6.2
2018-Jun-14 18:30N 57°01' E 010°09'4 6.8
2018-Jun-14 17:59N 56°59' E 010°14'91 3.0
2018-Jun-13 11:59N 56°08' E 012°30'3 4.8
2018-Jun-13 11:24N 56°06' E 012°34'2 5.0
2018-Jun-13 11:00N 56°05' E 012°36'3 4.9
2018-Jun-13 10:27N 56°03' E 012°39'2 5.0
2018-Jun-13 10:00N 56°01' E 012°40'2 4.7
2018-Jun-13 09:30N 55°59' E 012°41'3 5.1
2018-Jun-13 09:01N 55°56' E 012°40'3 5.4
2018-Jun-13 08:31N 55°54' E 012°39'3 6.5
2018-Jun-13 08:01N 55°50' E 012°40'3 6.7
2018-Jun-13 07:30N 55°47' E 012°41'3 5.7
2018-Jun-13 07:00N 55°44' E 012°41'3 6.2
2018-Jun-13 06:31N 55°41' E 012°41'3 5.7
2018-Jun-13 06:00N 55°38' E 012°42'3 5.6
2018-Jun-13 05:30N 55°36' E 012°42'3 6.1
2018-Jun-13 05:01N 55°33' E 012°43'3 6.1
2018-Jun-13 04:31N 55°30' E 012°42'3 6.9
2018-Jun-13 04:01N 55°26' E 012°42'4 7.3
2018-Jun-13 03:31N 55°22' E 012°41'4 7.1
2018-Jun-13 03:01N 55°19' E 012°42'5 5.8
2018-Jun-13 02:08N 55°17' E 012°51'  
Track history (hours):
 
Tides and Currents Weather Stations Pressure Air Temp Water Temp Dewpoint Dewpoint Depression Visibility Wind Speed Wind Dir Waves Ship Positions

Shtandart

Re-creation of early 1700's Russian naval frigate.

Last reported at 2018-Jun-21 03:44 UTC. Time now 2018-Jun-22 01:39 UTC.
Position N 54°07' E 008°02'.

Length 34 m; draft 3 m.

Type: Sailing vessel. MMSI: 273452840.

Date/timePositionNaut miles runAvg speedWind from/ knotsBaromVisibWave heightAir tempDewpointWater temp
2018-Jun-21 03:44N 54°07' E 008°02'1 5.4
2018-Jun-21 03:30N 54°06' E 008°04'3 5.5
2018-Jun-21 03:00N 54°05' E 008°08'3 5.6
2018-Jun-21 02:30N 54°03' E 008°12'3 5.1
2018-Jun-21 02:00N 54°02' E 008°16'3 5.2
2018-Jun-21 01:28N 54°01' E 008°20'11 7.1
2018-Jun-20 23:57N 53°57' E 008°37'5 9.7
2018-Jun-20 23:29N 53°54' E 008°42'510.5
2018-Jun-20 23:00N 53°50' E 008°49'611.0
2018-Jun-20 22:30N 53°51' E 008°58'510.6
2018-Jun-20 22:00N 53°53' E 009°06'2 4.9
2018-Jun-20 21:30N 53°54' E 009°10'4 8.3
2018-Jun-20 21:00N 53°57' E 009°15'4 8.2
2018-Jun-20 20:31N 54°01' E 009°18'45 5.8
2018-Jun-20 12:42N 54°30' E 010°17'1 6.2
2018-Jun-20 12:30N 54°30' E 010°19'3 6.4
2018-Jun-20 12:00N 54°32' E 010°24'3 6.7
2018-Jun-20 11:30N 54°33' E 010°29'3 6.4
2018-Jun-20 11:00N 54°33' E 010°35'3 6.6
2018-Jun-20 10:30N 54°33' E 010°41'3 6.3
2018-Jun-20 10:00N 54°33' E 010°46'3 6.0
2018-Jun-20 09:30N 54°34' E 010°51'3 5.5
2018-Jun-20 09:00N 54°34' E 010°56'3 5.3
2018-Jun-20 08:30N 54°34' E 011°00'3 5.8
2018-Jun-20 08:00N 54°35' E 011°05'3 6.5
2018-Jun-20 07:31N 54°35' E 011°11'3 6.4
2018-Jun-20 07:00N 54°34' E 011°16'3 6.4
2018-Jun-20 06:30N 54°33' E 011°22'3 6.7
2018-Jun-20 06:00N 54°33' E 011°27'3 6.7
2018-Jun-20 05:30N 54°32' E 011°33'3 6.1
2018-Jun-20 05:00N 54°31' E 011°38'3 6.4
2018-Jun-20 04:30N 54°30' E 011°43'3 6.3
2018-Jun-20 04:00N 54°30' E 011°49'3 6.8
2018-Jun-20 03:30N 54°30' E 011°54'4 7.3
2018-Jun-20 02:59N 54°32' E 012°01'5 7.4
2018-Jun-20 02:16N 54°35' E 012°08'2 7.5
2018-Jun-20 02:00N 54°36' E 012°10'4 7.1
2018-Jun-20 01:27N 54°39' E 012°15'3 7.1
2018-Jun-20 01:00N 54°42' E 012°18'3 6.8
2018-Jun-20 00:30N 54°44' E 012°22'3 6.4
2018-Jun-19 23:59N 54°47' E 012°26'6 6.1
2018-Jun-19 22:57N 54°52' E 012°32'10 7.0
2018-Jun-19 21:33N 55°01' E 012°36'1 8.3
2018-Jun-19 21:27N 55°02' E 012°36'4 8.2
2018-Jun-19 20:59N 55°06' E 012°36'4 7.9
2018-Jun-19 20:30N 55°10' E 012°36'4 8.0
2018-Jun-19 20:00N 55°14' E 012°36'4 7.3
2018-Jun-19 19:30N 55°17' E 012°36'4 7.7
2018-Jun-19 18:59N 55°21' E 012°37'4 7.9
2018-Jun-19 18:30N 55°25' E 012°39'4 7.8
2018-Jun-19 18:00N 55°29' E 012°40'4 8.4
2018-Jun-19 17:30N 55°33' E 012°42'4 9.0
2018-Jun-19 17:01N 55°38' E 012°42'4 8.5
2018-Jun-19 16:29N 55°42' E 012°38'2 3.2
2018-Jun-19 16:00N 55°41' E 012°36'0 0.0
2018-Jun-19 15:28N 55°41' E 012°36'0 0.0
2018-Jun-19 14:58N 55°41' E 012°36'0 0.0
2018-Jun-19 14:28N 55°41' E 012°36'0 0.0
2018-Jun-19 13:58N 55°41' E 012°36'0 0.0
2018-Jun-19 13:28N 55°41' E 012°36'0 0.0
2018-Jun-19 12:58N 55°41' E 012°36'0 0.0
2018-Jun-19 12:28N 55°41' E 012°36'0 0.0
2018-Jun-19 11:58N 55°41' E 012°36'0 0.0
2018-Jun-19 11:28N 55°41' E 012°36'0 0.0
2018-Jun-19 10:58N 55°41' E 012°36'0 0.0
2018-Jun-19 10:28N 55°41' E 012°36'0 0.0
2018-Jun-19 09:58N 55°41' E 012°36'0 0.0
2018-Jun-19 09:28N 55°41' E 012°36'0 0.0
2018-Jun-19 08:58N 55°41' E 012°36'0 0.0
2018-Jun-19 08:28N 55°41' E 012°36'0 0.0
2018-Jun-19 07:58N 55°41' E 012°36'0 0.0
2018-Jun-19 07:28N 55°41' E 012°36'0 0.0
2018-Jun-19 06:58N 55°41' E 012°36'0 0.0
2018-Jun-19 06:28N 55°41' E 012°36'0 0.0
2018-Jun-19 05:58N 55°41' E 012°36'0 0.0
2018-Jun-19 05:28N 55°41' E 012°36'0 0.0
2018-Jun-19 04:58N 55°41' E 012°36'0 0.0
2018-Jun-19 04:28N 55°41' E 012°36'0 0.0
2018-Jun-19 03:58N 55°41' E 012°36'0 0.0
2018-Jun-19 03:28N 55°41' E 012°36'0 0.0
2018-Jun-19 02:58N 55°41' E 012°36'0 0.0
2018-Jun-19 02:28N 55°41' E 012°36'0 0.0
2018-Jun-19 01:58N 55°41' E 012°36'0 0.0
2018-Jun-19 01:28N 55°41' E 012°36'0 0.0
2018-Jun-19 00:58N 55°41' E 012°36'0 0.0
2018-Jun-19 00:28N 55°41' E 012°36'0 0.0
2018-Jun-18 23:58N 55°41' E 012°36'0 0.0
2018-Jun-18 23:28N 55°41' E 012°36'0 0.0
2018-Jun-18 22:58N 55°41' E 012°36'0 0.0
2018-Jun-18 22:28N 55°41' E 012°36'0 0.0
2018-Jun-18 21:58N 55°41' E 012°36'0 0.0
2018-Jun-18 21:28N 55°41' E 012°36'0 0.0
2018-Jun-18 20:58N 55°41' E 012°36'0 0.0
2018-Jun-18 20:28N 55°41' E 012°36'0 0.0
2018-Jun-18 19:58N 55°41' E 012°36'0 0.0
2018-Jun-18 19:28N 55°41' E 012°36'0 0.0
2018-Jun-18 18:58N 55°41' E 012°36'0 0.0
2018-Jun-18 18:28N 55°41' E 012°36'0 0.0
2018-Jun-18 17:58N 55°41' E 012°36'0 0.0
2018-Jun-18 17:28N 55°41' E 012°36'0 0.0
2018-Jun-18 16:58N 55°41' E 012°36'0 0.0
2018-Jun-18 16:28N 55°41' E 012°36'0 0.0
2018-Jun-18 15:58N 55°41' E 012°36'0 0.0
2018-Jun-18 15:28N 55°41' E 012°36'0 0.9
2018-Jun-18 15:00N 55°41' E 012°36'2 4.5
2018-Jun-18 14:31N 55°43' E 012°38'2 4.1
2018-Jun-18 14:00N 55°45' E 012°39'2 4.7
2018-Jun-18 13:30N 55°48' E 012°38'2 4.9
2018-Jun-18 13:01N 55°50' E 012°38'2 4.5
2018-Jun-18 12:31N 55°52' E 012°39'2 4.7
2018-Jun-18 12:00N 55°55' E 012°39'3 5.3
2018-Jun-18 11:31N 55°57' E 012°39'3 5.4
2018-Jun-18 11:01N 56°00' E 012°39'2 4.8
2018-Jun-18 10:30N 56°02' E 012°38'2 3.5
2018-Jun-18 09:59N 56°04' E 012°36'91 5.4
2018-Jun-17 17:05N 56°57' E 010°23'1 7.6
2018-Jun-17 16:58N 56°58' E 010°22'4 7.3
2018-Jun-17 16:26N 56°59' E 010°15'3 7.2
2018-Jun-17 16:00N 57°00' E 010°10'4 7.4
2018-Jun-17 15:31N 57°03' E 010°05'3 6.5
2018-Jun-17 15:01N 57°05' E 010°01'3 6.4
2018-Jun-17 14:30N 57°03' E 009°56'1 1.1
2018-Jun-17 13:59N 57°03' E 009°55'0 0.0
2018-Jun-17 13:26N 57°03' E 009°55'0 0.0
2018-Jun-17 12:59N 57°03' E 009°55'0 0.0
2018-Jun-17 12:29N 57°03' E 009°55'0 0.0
2018-Jun-17 11:56N 57°03' E 009°55'0 0.0
2018-Jun-17 11:29N 57°03' E 009°55'0 0.0
2018-Jun-17 10:59N 57°03' E 009°55'0 0.0
2018-Jun-17 10:29N 57°03' E 009°55'0 0.0
2018-Jun-17 09:59N 57°03' E 009°55'0 0.0
2018-Jun-17 09:29N 57°03' E 009°55'0 0.0
2018-Jun-17 08:59N 57°03' E 009°55'0 0.0
2018-Jun-17 08:29N 57°03' E 009°55'0 0.0
2018-Jun-17 07:59N 57°03' E 009°55'0 0.0
2018-Jun-17 07:29N 57°03' E 009°55'0 0.0
2018-Jun-17 06:53N 57°03' E 009°55'0 0.0
2018-Jun-17 06:29N 57°03' E 009°55'0 0.0
2018-Jun-17 05:59N 57°03' E 009°55'0 0.0
2018-Jun-17 05:26N 57°03' E 009°55'0 0.0
2018-Jun-17 04:59N 57°03' E 009°55'0 0.0
2018-Jun-17 04:29N 57°03' E 009°55'0 0.0
2018-Jun-17 03:59N 57°03' E 009°55'0 0.0
2018-Jun-17 03:29N 57°03' E 009°55'0 0.0
2018-Jun-17 02:59N 57°03' E 009°55'0 0.0
2018-Jun-17 02:29N 57°03' E 009°55'0 0.0
2018-Jun-17 01:53N 57°03' E 009°55'0 0.0
2018-Jun-17 01:23N 57°03' E 009°55'0 0.0
2018-Jun-17 00:53N 57°03' E 009°55'0 0.0
2018-Jun-17 00:29N 57°03' E 009°55'0 0.0
2018-Jun-16 23:59N 57°03' E 009°55'0 0.0
2018-Jun-16 23:20N 57°03' E 009°55'0 0.0
2018-Jun-16 22:53N 57°03' E 009°55'0 0.0
2018-Jun-16 22:29N 57°03' E 009°55'0 0.0
2018-Jun-16 21:59N 57°03' E 009°55'0 0.0
2018-Jun-16 21:29N 57°03' E 009°55'0 0.0
2018-Jun-16 20:59N 57°03' E 009°55'0 0.0
2018-Jun-16 20:29N 57°03' E 009°55'0 0.0
2018-Jun-16 19:59N 57°03' E 009°55'0 0.0
2018-Jun-16 19:29N 57°03' E 009°55'0 0.0
2018-Jun-16 18:59N 57°03' E 009°55'0 0.0
2018-Jun-16 18:29N 57°03' E 009°55'0 0.0
2018-Jun-16 17:56N 57°03' E 009°55'0 0.0
2018-Jun-16 17:26N 57°03' E 009°55'0 0.0
2018-Jun-16 16:56N 57°03' E 009°55'0 0.0
2018-Jun-16 16:23N 57°03' E 009°55'0 0.0
2018-Jun-16 15:56N 57°03' E 009°55'0 0.0
2018-Jun-16 15:29N 57°03' E 009°55'0 0.0
2018-Jun-16 14:59N 57°03' E 009°55'0 0.0
2018-Jun-16 14:26N 57°03' E 009°55'0 0.0
2018-Jun-16 13:59N 57°03' E 009°55'0 0.0
2018-Jun-16 13:26N 57°03' E 009°55'0 0.0
2018-Jun-16 12:59N 57°03' E 009°55'0 0.0
2018-Jun-16 12:29N 57°03' E 009°55'0 0.0
2018-Jun-16 11:59N 57°03' E 009°55'0 0.0
2018-Jun-16 11:29N 57°03' E 009°55'0 0.0
2018-Jun-16 10:59N 57°03' E 009°55'0 0.0
2018-Jun-16 10:29N 57°03' E 009°55'0 0.0
2018-Jun-16 09:59N 57°03' E 009°55'0 0.0
2018-Jun-16 09:26N 57°03' E 009°55'0 0.0
2018-Jun-16 08:59N 57°03' E 009°55'0 0.0
2018-Jun-16 08:29N 57°03' E 009°55'0 0.0
2018-Jun-16 07:59N 57°03' E 009°55'0 0.0
2018-Jun-16 07:23N 57°03' E 009°55'0 0.0
2018-Jun-16 06:59N 57°03' E 009°55'0 0.0
2018-Jun-16 06:26N 57°03' E 009°55'0 0.0
2018-Jun-16 05:59N 57°03' E 009°55'0 0.0
2018-Jun-16 05:29N 57°03' E 009°55'0 0.0
2018-Jun-16 04:59N 57°03' E 009°55'0 0.0
2018-Jun-16 04:29N 57°03' E 009°55'0 0.0
2018-Jun-16 03:53N 57°03' E 009°55'0 0.0
2018-Jun-16 03:29N 57°03' E 009°55'0 0.0
2018-Jun-16 02:59N 57°03' E 009°55'0 0.0
2018-Jun-16 02:29N 57°03' E 009°55'0 0.0
2018-Jun-16 01:56N 57°03' E 009°55'0 0.0
2018-Jun-16 01:29N 57°03' E 009°55'0 0.0
2018-Jun-16 00:59N 57°03' E 009°55'0 0.0
2018-Jun-16 00:29N 57°03' E 009°55'0 0.0
2018-Jun-15 23:59N 57°03' E 009°55'0 0.0
2018-Jun-15 23:23N 57°03' E 009°55'0 0.0
2018-Jun-15 22:59N 57°03' E 009°55'0 0.0
2018-Jun-15 22:29N 57°03' E 009°55'0 0.0
2018-Jun-15 21:59N 57°03' E 009°55'0 0.0
2018-Jun-15 21:29N 57°03' E 009°55'0 0.0
2018-Jun-15 20:59N 57°03' E 009°55'0 0.0
2018-Jun-15 20:29N 57°03' E 009°55'0 0.0
2018-Jun-15 19:59N 57°03' E 009°55'0 0.0
2018-Jun-15 19:29N 57°03' E 009°55'0 0.0
2018-Jun-15 18:59N 57°03' E 009°55'0 0.0
2018-Jun-15 18:29N 57°03' E 009°55'0 0.0
2018-Jun-15 17:59N 57°03' E 009°55'0 0.0
2018-Jun-15 17:29N 57°03' E 009°55'0 0.0
2018-Jun-15 16:59N 57°03' E 009°55'0 0.0
2018-Jun-15 16:29N 57°03' E 009°55'0 0.0
2018-Jun-15 15:59N 57°03' E 009°55'0 0.0
2018-Jun-15 15:29N 57°03' E 009°55'0 0.0
2018-Jun-15 14:59N 57°03' E 009°55'0 0.0
2018-Jun-15 14:29N 57°03' E 009°55'0 0.0
2018-Jun-15 13:44N 57°03' E 009°55'0 0.0
2018-Jun-15 13:29N 57°03' E 009°55'0 0.0
2018-Jun-15 12:59N 57°03' E 009°55'0 0.0
2018-Jun-15 12:29N 57°03' E 009°55'0 0.0
2018-Jun-15 11:59N 57°03' E 009°55'0 0.0
2018-Jun-15 11:29N 57°03' E 009°55'0 0.0
2018-Jun-15 11:00N 57°03' E 009°55'0 0.4
2018-Jun-15 10:28N 57°03' E 009°56'0 0.0
2018-Jun-15 09:58N 57°03' E 009°56'0 0.0
2018-Jun-15 09:28N 57°03' E 009°56'0 0.0
2018-Jun-15 08:58N 57°03' E 009°56'0 0.0
2018-Jun-15 08:28N 57°03' E 009°56'0 0.0
2018-Jun-15 07:49N 57°03' E 009°56'0 0.0
2018-Jun-15 07:28N 57°03' E 009°56'0 0.0
2018-Jun-15 06:58N 57°03' E 009°56'0 0.0
2018-Jun-15 06:25N 57°03' E 009°56'0 0.0
2018-Jun-15 05:58N 57°03' E 009°56'0 0.0
2018-Jun-15 05:25N 57°03' E 009°56'0 0.0
2018-Jun-15 04:58N 57°03' E 009°56'0 0.0
2018-Jun-15 04:28N 57°03' E 009°56'0 0.0
2018-Jun-15 03:58N 57°03' E 009°56'0 0.0
2018-Jun-15 03:28N 57°03' E 009°56'0 0.0
2018-Jun-15 02:58N 57°03' E 009°56'0 0.0
2018-Jun-15 02:19N 57°03' E 009°56'0 0.0
2018-Jun-15 01:55N 57°03' E 009°56'0 0.0
2018-Jun-15 01:28N 57°03' E 009°56'0 0.0
2018-Jun-15 00:58N 57°03' E 009°56'0 0.0
2018-Jun-15 00:22N 57°03' E 009°56'0 0.0
2018-Jun-14 23:58N 57°03' E 009°56'0 0.0
2018-Jun-14 23:22N 57°03' E 009°56'0 0.0
2018-Jun-14 22:58N 57°03' E 009°56'0 0.0
2018-Jun-14 22:25N 57°03' E 009°56'0 0.0
2018-Jun-14 21:58N 57°03' E 009°56'0 0.0
2018-Jun-14 21:28N 57°03' E 009°56'0 0.0
2018-Jun-14 20:58N 57°03' E 009°56'0 0.0
2018-Jun-14 20:28N 57°03' E 009°56'1 1.4
2018-Jun-14 20:00N 57°03' E 009°57'3 5.5
2018-Jun-14 19:30N 57°05' E 010°00'3 5.7
2018-Jun-14 19:00N 57°03' E 010°04'3 6.2
2018-Jun-14 18:30N 57°01' E 010°09'4 6.8
2018-Jun-14 17:59N 56°59' E 010°14'91 3.0
2018-Jun-13 11:59N 56°08' E 012°30'3 4.8
2018-Jun-13 11:24N 56°06' E 012°34'2 5.0
2018-Jun-13 11:00N 56°05' E 012°36'3 4.9
2018-Jun-13 10:27N 56°03' E 012°39'2 5.0
2018-Jun-13 10:00N 56°01' E 012°40'2 4.7
2018-Jun-13 09:30N 55°59' E 012°41'3 5.1
2018-Jun-13 09:01N 55°56' E 012°40'3 5.4
2018-Jun-13 08:31N 55°54' E 012°39'3 6.5
2018-Jun-13 08:01N 55°50' E 012°40'3 6.7
2018-Jun-13 07:30N 55°47' E 012°41'3 5.7
2018-Jun-13 07:00N 55°44' E 012°41'3 6.2
2018-Jun-13 06:31N 55°41' E 012°41'3 5.7
2018-Jun-13 06:00N 55°38' E 012°42'3 5.6
2018-Jun-13 05:30N 55°36' E 012°42'3 6.1
2018-Jun-13 05:01N 55°33' E 012°43'3 6.1
2018-Jun-13 04:31N 55°30' E 012°42'3 6.9
2018-Jun-13 04:01N 55°26' E 012°42'4 7.3
2018-Jun-13 03:31N 55°22' E 012°41'4 7.1
2018-Jun-13 03:01N 55°19' E 012°42'5 5.8
2018-Jun-13 02:08N 55°17' E 012°51'  

Dump ship's entire track history